sensor_id;sensor_type;location;lat;lon;timestamp;P1;durP1;ratioP1;P2;durP2;ratioP2
10295;SDS011;5193;51.032;6.356;2023-05-06T00:01:04;10.93;;;8.43;;
10295;SDS011;5193;51.032;6.356;2023-05-06T00:03:29;14.23;;;9.57;;
10295;SDS011;5193;51.032;6.356;2023-05-06T00:05:55;12.20;;;9.17;;
10295;SDS011;5193;51.032;6.356;2023-05-06T00:08:21;12.13;;;9.20;;
10295;SDS011;5193;51.032;6.356;2023-05-06T00:10:46;12.13;;;8.87;;
10295;SDS011;5193;51.032;6.356;2023-05-06T00:13:12;13.13;;;9.00;;
10295;SDS011;5193;51.032;6.356;2023-05-06T00:15:38;13.47;;;8.80;;
10295;SDS011;5193;51.032;6.356;2023-05-06T00:18:04;10.27;;;8.10;;
10295;SDS011;5193;51.032;6.356;2023-05-06T00:20:30;10.87;;;7.87;;
10295;SDS011;5193;51.032;6.356;2023-05-06T00:22:56;11.20;;;8.80;;
10295;SDS011;5193;51.032;6.356;2023-05-06T00:25:22;13.93;;;9.80;;
10295;SDS011;5193;51.032;6.356;2023-05-06T00:27:48;12.60;;;8.50;;
10295;SDS011;5193;51.032;6.356;2023-05-06T00:30:13;13.33;;;8.53;;
10295;SDS011;5193;51.032;6.356;2023-05-06T00:32:39;11.90;;;8.27;;
10295;SDS011;5193;51.032;6.356;2023-05-06T00:35:05;10.50;;;7.90;;
10295;SDS011;5193;51.032;6.356;2023-05-06T00:37:31;11.13;;;8.40;;
10295;SDS011;5193;51.032;6.356;2023-05-06T00:39:56;13.23;;;9.47;;
10295;SDS011;5193;51.032;6.356;2023-05-06T00:42:23;11.73;;;8.93;;
10295;SDS011;5193;51.032;6.356;2023-05-06T00:44:49;13.30;;;10.30;;
10295;SDS011;5193;51.032;6.356;2023-05-06T00:47:15;11.97;;;8.70;;
10295;SDS011;5193;51.032;6.356;2023-05-06T00:49:43;15.13;;;10.53;;
10295;SDS011;5193;51.032;6.356;2023-05-06T00:52:10;15.90;;;10.30;;
10295;SDS011;5193;51.032;6.356;2023-05-06T00:54:37;15.07;;;10.23;;
10295;SDS011;5193;51.032;6.356;2023-05-06T00:57:03;14.93;;;10.47;;
10295;SDS011;5193;51.032;6.356;2023-05-06T00:59:28;12.43;;;9.77;;
10295;SDS011;5193;51.032;6.356;2023-05-06T01:01:54;16.47;;;11.03;;
10295;SDS011;5193;51.032;6.356;2023-05-06T01:04:20;13.50;;;10.03;;
10295;SDS011;5193;51.032;6.356;2023-05-06T01:06:54;17.47;;;11.73;;
10295;SDS011;5193;51.032;6.356;2023-05-06T01:09:46;18.50;;;11.17;;
10295;SDS011;5193;51.032;6.356;2023-05-06T01:12:21;19.33;;;13.83;;
10295;SDS011;5193;51.032;6.356;2023-05-06T01:17:41;19.80;;;12.23;;
10295;SDS011;5193;51.032;6.356;2023-05-06T01:20:09;16.67;;;11.33;;
10295;SDS011;5193;51.032;6.356;2023-05-06T01:22:36;15.40;;;11.00;;
10295;SDS011;5193;51.032;6.356;2023-05-06T01:25:02;16.43;;;11.67;;
10295;SDS011;5193;51.032;6.356;2023-05-06T01:27:28;14.17;;;10.27;;
10295;SDS011;5193;51.032;6.356;2023-05-06T01:29:54;12.47;;;9.50;;
10295;SDS011;5193;51.032;6.356;2023-05-06T01:32:32;12.23;;;10.00;;
10295;SDS011;5193;51.032;6.356;2023-05-06T01:35:14;12.87;;;9.80;;
10295;SDS011;5193;51.032;6.356;2023-05-06T01:38:05;11.97;;;8.23;;
10295;SDS011;5193;51.032;6.356;2023-05-06T01:40:37;9.97;;;7.90;;
10295;SDS011;5193;51.032;6.356;2023-05-06T01:43:05;9.77;;;7.93;;
10295;SDS011;5193;51.032;6.356;2023-05-06T01:45:32;10.33;;;8.20;;
10295;SDS011;5193;51.032;6.356;2023-05-06T01:48:00;10.77;;;7.67;;
10295;SDS011;5193;51.032;6.356;2023-05-06T01:50:26;9.60;;;7.53;;
10295;SDS011;5193;51.032;6.356;2023-05-06T01:52:58;10.40;;;7.87;;
10295;SDS011;5193;51.032;6.356;2023-05-06T01:55:25;16.03;;;9.53;;
10295;SDS011;5193;51.032;6.356;2023-05-06T01:57:51;12.93;;;8.97;;
10295;SDS011;5193;51.032;6.356;2023-05-06T02:00:18;11.53;;;7.93;;
10295;SDS011;5193;51.032;6.356;2023-05-06T02:02:43;13.40;;;9.33;;
10295;SDS011;5193;51.032;6.356;2023-05-06T02:05:09;12.20;;;8.57;;
10295;SDS011;5193;51.032;6.356;2023-05-06T02:07:34;12.33;;;7.90;;
10295;SDS011;5193;51.032;6.356;2023-05-06T02:10:00;15.50;;;8.83;;
10295;SDS011;5193;51.032;6.356;2023-05-06T02:12:25;12.60;;;9.33;;
10295;SDS011;5193;51.032;6.356;2023-05-06T02:14:51;12.30;;;7.73;;
10295;SDS011;5193;51.032;6.356;2023-05-06T02:17:16;13.30;;;9.07;;
10295;SDS011;5193;51.032;6.356;2023-05-06T02:19:42;12.43;;;9.10;;
10295;SDS011;5193;51.032;6.356;2023-05-06T02:22:07;12.47;;;9.27;;
10295;SDS011;5193;51.032;6.356;2023-05-06T02:24:33;13.00;;;9.53;;
10295;SDS011;5193;51.032;6.356;2023-05-06T02:26:59;12.83;;;9.30;;
10295;SDS011;5193;51.032;6.356;2023-05-06T02:29:26;11.73;;;8.30;;
10295;SDS011;5193;51.032;6.356;2023-05-06T02:31:51;10.63;;;7.97;;
10295;SDS011;5193;51.032;6.356;2023-05-06T02:34:17;10.87;;;7.73;;
10295;SDS011;5193;51.032;6.356;2023-05-06T02:36:42;11.93;;;7.93;;
10295;SDS011;5193;51.032;6.356;2023-05-06T02:39:08;7.83;;;6.67;;
10295;SDS011;5193;51.032;6.356;2023-05-06T02:41:33;10.03;;;7.10;;
10295;SDS011;5193;51.032;6.356;2023-05-06T02:43:59;7.43;;;5.80;;
10295;SDS011;5193;51.032;6.356;2023-05-06T02:46:25;6.93;;;5.67;;
10295;SDS011;5193;51.032;6.356;2023-05-06T02:48:50;6.83;;;4.83;;
10295;SDS011;5193;51.032;6.356;2023-05-06T02:51:16;5.73;;;4.70;;
10295;SDS011;5193;51.032;6.356;2023-05-06T02:53:41;5.83;;;4.60;;
10295;SDS011;5193;51.032;6.356;2023-05-06T02:56:07;4.57;;;4.00;;
10295;SDS011;5193;51.032;6.356;2023-05-06T02:58:33;7.00;;;4.40;;
10295;SDS011;5193;51.032;6.356;2023-05-06T03:00:58;4.37;;;3.97;;
10295;SDS011;5193;51.032;6.356;2023-05-06T03:03:24;4.43;;;4.00;;
10295;SDS011;5193;51.032;6.356;2023-05-06T03:05:49;5.23;;;4.43;;
10295;SDS011;5193;51.032;6.356;2023-05-06T03:08:15;5.40;;;4.37;;
10295;SDS011;5193;51.032;6.356;2023-05-06T03:10:40;5.23;;;4.70;;
10295;SDS011;5193;51.032;6.356;2023-05-06T03:13:06;5.47;;;4.77;;
10295;SDS011;5193;51.032;6.356;2023-05-06T03:15:31;5.83;;;4.13;;
10295;SDS011;5193;51.032;6.356;2023-05-06T03:17:57;5.43;;;4.53;;
10295;SDS011;5193;51.032;6.356;2023-05-06T03:20:22;4.83;;;4.27;;
10295;SDS011;5193;51.032;6.356;2023-05-06T03:22:48;4.73;;;4.20;;
10295;SDS011;5193;51.032;6.356;2023-05-06T03:25:14;4.47;;;3.87;;
10295;SDS011;5193;51.032;6.356;2023-05-06T03:27:40;5.00;;;4.10;;
10295;SDS011;5193;51.032;6.356;2023-05-06T03:30:05;5.43;;;3.33;;
10295;SDS011;5193;51.032;6.356;2023-05-06T03:32:32;4.40;;;4.00;;
10295;SDS011;5193;51.032;6.356;2023-05-06T03:34:58;4.33;;;3.47;;
10295;SDS011;5193;51.032;6.356;2023-05-06T03:37:23;4.17;;;3.27;;
10295;SDS011;5193;51.032;6.356;2023-05-06T03:39:49;4.20;;;3.40;;
10295;SDS011;5193;51.032;6.356;2023-05-06T03:42:14;6.40;;;3.70;;
10295;SDS011;5193;51.032;6.356;2023-05-06T03:44:40;4.97;;;3.70;;
10295;SDS011;5193;51.032;6.356;2023-05-06T03:47:06;4.20;;;3.50;;
10295;SDS011;5193;51.032;6.356;2023-05-06T03:49:31;5.20;;;4.33;;
10295;SDS011;5193;51.032;6.356;2023-05-06T03:51:57;5.67;;;4.50;;
10295;SDS011;5193;51.032;6.356;2023-05-06T03:54:23;5.67;;;3.87;;
10295;SDS011;5193;51.032;6.356;2023-05-06T03:56:49;5.47;;;4.37;;
10295;SDS011;5193;51.032;6.356;2023-05-06T03:59:14;9.77;;;5.30;;
10295;SDS011;5193;51.032;6.356;2023-05-06T04:01:40;5.80;;;4.63;;
10295;SDS011;5193;51.032;6.356;2023-05-06T04:04:05;7.57;;;5.30;;
10295;SDS011;5193;51.032;6.356;2023-05-06T04:06:31;6.00;;;4.77;;
10295;SDS011;5193;51.032;6.356;2023-05-06T04:08:57;8.17;;;5.50;;
10295;SDS011;5193;51.032;6.356;2023-05-06T04:11:22;7.70;;;5.80;;
10295;SDS011;5193;51.032;6.356;2023-05-06T04:13:48;7.37;;;5.40;;
10295;SDS011;5193;51.032;6.356;2023-05-06T04:16:14;6.90;;;5.13;;
10295;SDS011;5193;51.032;6.356;2023-05-06T04:18:39;8.87;;;6.00;;
10295;SDS011;5193;51.032;6.356;2023-05-06T04:21:05;8.97;;;5.97;;
10295;SDS011;5193;51.032;6.356;2023-05-06T04:23:31;8.17;;;5.90;;
10295;SDS011;5193;51.032;6.356;2023-05-06T04:25:56;8.53;;;6.07;;
10295;SDS011;5193;51.032;6.356;2023-05-06T04:28:23;8.07;;;5.33;;
10295;SDS011;5193;51.032;6.356;2023-05-06T04:30:48;9.13;;;5.53;;
10295;SDS011;5193;51.032;6.356;2023-05-06T04:33:14;10.87;;;6.23;;
10295;SDS011;5193;51.032;6.356;2023-05-06T04:35:40;11.63;;;5.73;;
10295;SDS011;5193;51.032;6.356;2023-05-06T04:38:16;9.60;;;6.57;;
10295;SDS011;5193;51.032;6.356;2023-05-06T04:40:41;9.10;;;6.10;;
10295;SDS011;5193;51.032;6.356;2023-05-06T04:43:08;9.53;;;6.73;;
10295;SDS011;5193;51.032;6.356;2023-05-06T04:45:34;12.50;;;7.17;;
10295;SDS011;5193;51.032;6.356;2023-05-06T04:48:01;13.03;;;6.83;;
10295;SDS011;5193;51.032;6.356;2023-05-06T04:50:27;10.43;;;6.80;;
10295;SDS011;5193;51.032;6.356;2023-05-06T04:52:53;7.97;;;5.97;;
10295;SDS011;5193;51.032;6.356;2023-05-06T04:55:18;9.57;;;6.57;;
10295;SDS011;5193;51.032;6.356;2023-05-06T04:57:44;10.23;;;6.70;;
10295;SDS011;5193;51.032;6.356;2023-05-06T05:00:10;9.80;;;6.37;;
10295;SDS011;5193;51.032;6.356;2023-05-06T05:02:35;13.30;;;6.93;;
10295;SDS011;5193;51.032;6.356;2023-05-06T05:05:01;9.97;;;6.63;;
10295;SDS011;5193;51.032;6.356;2023-05-06T05:07:27;12.07;;;7.23;;
10295;SDS011;5193;51.032;6.356;2023-05-06T05:09:52;8.57;;;6.60;;
10295;SDS011;5193;51.032;6.356;2023-05-06T05:12:18;9.60;;;6.40;;
10295;SDS011;5193;51.032;6.356;2023-05-06T05:14:43;12.53;;;6.57;;
10295;SDS011;5193;51.032;6.356;2023-05-06T05:17:11;8.33;;;5.53;;
10295;SDS011;5193;51.032;6.356;2023-05-06T05:19:36;11.50;;;6.13;;
10295;SDS011;5193;51.032;6.356;2023-05-06T05:22:03;10.30;;;6.27;;
10295;SDS011;5193;51.032;6.356;2023-05-06T05:24:28;8.87;;;5.63;;
10295;SDS011;5193;51.032;6.356;2023-05-06T05:26:54;9.13;;;5.87;;
10295;SDS011;5193;51.032;6.356;2023-05-06T05:29:20;10.03;;;6.83;;
10295;SDS011;5193;51.032;6.356;2023-05-06T05:31:45;10.17;;;6.07;;
10295;SDS011;5193;51.032;6.356;2023-05-06T05:34:11;15.17;;;6.57;;
10295;SDS011;5193;51.032;6.356;2023-05-06T05:36:36;11.23;;;6.00;;
10295;SDS011;5193;51.032;6.356;2023-05-06T05:39:02;11.70;;;5.93;;
10295;SDS011;5193;51.032;6.356;2023-05-06T05:41:27;10.07;;;5.97;;
10295;SDS011;5193;51.032;6.356;2023-05-06T05:43:53;11.40;;;5.87;;
10295;SDS011;5193;51.032;6.356;2023-05-06T05:46:19;9.90;;;5.37;;
10295;SDS011;5193;51.032;6.356;2023-05-06T05:48:44;7.87;;;5.23;;
10295;SDS011;5193;51.032;6.356;2023-05-06T05:51:10;8.43;;;5.60;;
10295;SDS011;5193;51.032;6.356;2023-05-06T05:53:35;6.87;;;4.70;;
10295;SDS011;5193;51.032;6.356;2023-05-06T05:56:01;12.47;;;5.37;;
10295;SDS011;5193;51.032;6.356;2023-05-06T05:58:27;8.67;;;5.40;;
10295;SDS011;5193;51.032;6.356;2023-05-06T06:00:53;6.83;;;4.40;;
10295;SDS011;5193;51.032;6.356;2023-05-06T06:03:18;9.27;;;5.03;;
10295;SDS011;5193;51.032;6.356;2023-05-06T06:05:44;6.80;;;4.77;;
10295;SDS011;5193;51.032;6.356;2023-05-06T06:08:09;6.70;;;4.00;;
10295;SDS011;5193;51.032;6.356;2023-05-06T06:10:35;8.80;;;4.07;;
10295;SDS011;5193;51.032;6.356;2023-05-06T06:13:01;4.70;;;3.47;;
10295;SDS011;5193;51.032;6.356;2023-05-06T06:15:27;6.90;;;3.80;;
10295;SDS011;5193;51.032;6.356;2023-05-06T06:17:53;5.20;;;3.53;;
10295;SDS011;5193;51.032;6.356;2023-05-06T06:20:19;4.10;;;3.27;;
10295;SDS011;5193;51.032;6.356;2023-05-06T06:22:45;6.30;;;3.33;;
10295;SDS011;5193;51.032;6.356;2023-05-06T06:25:10;5.17;;;3.50;;
10295;SDS011;5193;51.032;6.356;2023-05-06T06:27:36;5.33;;;3.50;;
10295;SDS011;5193;51.032;6.356;2023-05-06T06:30:02;3.83;;;3.03;;
10295;SDS011;5193;51.032;6.356;2023-05-06T06:32:28;4.40;;;2.83;;
10295;SDS011;5193;51.032;6.356;2023-05-06T06:34:53;3.67;;;2.90;;
10295;SDS011;5193;51.032;6.356;2023-05-06T06:37:19;4.47;;;2.70;;
10295;SDS011;5193;51.032;6.356;2023-05-06T06:39:44;4.17;;;2.87;;
10295;SDS011;5193;51.032;6.356;2023-05-06T06:42:10;7.20;;;2.53;;
10295;SDS011;5193;51.032;6.356;2023-05-06T06:44:36;3.50;;;2.60;;
10295;SDS011;5193;51.032;6.356;2023-05-06T06:47:01;4.60;;;2.30;;
10295;SDS011;5193;51.032;6.356;2023-05-06T06:49:27;2.83;;;2.10;;
10295;SDS011;5193;51.032;6.356;2023-05-06T06:51:54;5.43;;;2.10;;
10295;SDS011;5193;51.032;6.356;2023-05-06T06:54:21;3.43;;;1.77;;
10295;SDS011;5193;51.032;6.356;2023-05-06T06:56:47;1.80;;;1.70;;
10295;SDS011;5193;51.032;6.356;2023-05-06T06:59:12;3.33;;;1.70;;
10295;SDS011;5193;51.032;6.356;2023-05-06T07:01:39;5.60;;;2.10;;
10295;SDS011;5193;51.032;6.356;2023-05-06T07:04:05;2.70;;;2.07;;
10295;SDS011;5193;51.032;6.356;2023-05-06T07:06:31;3.13;;;1.90;;
10295;SDS011;5193;51.032;6.356;2023-05-06T07:08:57;3.30;;;1.83;;
10295;SDS011;5193;51.032;6.356;2023-05-06T07:11:22;4.80;;;1.87;;
10295;SDS011;5193;51.032;6.356;2023-05-06T07:13:48;1.77;;;1.50;;
10295;SDS011;5193;51.032;6.356;2023-05-06T07:16:13;3.00;;;1.67;;
10295;SDS011;5193;51.032;6.356;2023-05-06T07:18:39;4.33;;;1.70;;
10295;SDS011;5193;51.032;6.356;2023-05-06T07:21:04;1.50;;;1.10;;
10295;SDS011;5193;51.032;6.356;2023-05-06T07:23:30;2.20;;;0.90;;
10295;SDS011;5193;51.032;6.356;2023-05-06T07:25:56;2.43;;;1.20;;
10295;SDS011;5193;51.032;6.356;2023-05-06T07:28:22;1.80;;;1.10;;
10295;SDS011;5193;51.032;6.356;2023-05-06T07:30:48;1.90;;;1.07;;
10295;SDS011;5193;51.032;6.356;2023-05-06T07:33:15;2.43;;;1.20;;
10295;SDS011;5193;51.032;6.356;2023-05-06T07:35:40;2.30;;;1.13;;
10295;SDS011;5193;51.032;6.356;2023-05-06T07:38:06;2.37;;;1.37;;
10295;SDS011;5193;51.032;6.356;2023-05-06T07:40:31;1.93;;;1.20;;
10295;SDS011;5193;51.032;6.356;2023-05-06T07:42:57;1.70;;;1.10;;
10295;SDS011;5193;51.032;6.356;2023-05-06T07:45:23;2.27;;;1.30;;
10295;SDS011;5193;51.032;6.356;2023-05-06T07:47:49;1.50;;;1.20;;
10295;SDS011;5193;51.032;6.356;2023-05-06T07:50:15;3.00;;;1.50;;
10295;SDS011;5193;51.032;6.356;2023-05-06T07:52:40;1.37;;;1.07;;
10295;SDS011;5193;51.032;6.356;2023-05-06T07:55:06;1.60;;;1.27;;
10295;SDS011;5193;51.032;6.356;2023-05-06T07:57:34;2.40;;;1.20;;
10295;SDS011;5193;51.032;6.356;2023-05-06T07:59:59;1.27;;;1.17;;
10295;SDS011;5193;51.032;6.356;2023-05-06T08:02:25;2.90;;;1.17;;
10295;SDS011;5193;51.032;6.356;2023-05-06T08:04:51;2.40;;;1.00;;
10295;SDS011;5193;51.032;6.356;2023-05-06T08:07:16;1.50;;;1.10;;
10295;SDS011;5193;51.032;6.356;2023-05-06T08:09:42;2.10;;;1.57;;
10295;SDS011;5193;51.032;6.356;2023-05-06T08:12:08;1.63;;;1.20;;
10295;SDS011;5193;51.032;6.356;2023-05-06T08:14:34;1.97;;;1.13;;
10295;SDS011;5193;51.032;6.356;2023-05-06T08:16:59;1.63;;;1.10;;
10295;SDS011;5193;51.032;6.356;2023-05-06T08:19:25;2.20;;;1.10;;
10295;SDS011;5193;51.032;6.356;2023-05-06T08:21:51;1.00;;;0.90;;
10295;SDS011;5193;51.032;6.356;2023-05-06T08:24:16;3.00;;;0.90;;
10295;SDS011;5193;51.032;6.356;2023-05-06T08:26:42;1.97;;;1.00;;
10295;SDS011;5193;51.032;6.356;2023-05-06T08:29:08;1.70;;;0.93;;
10295;SDS011;5193;51.032;6.356;2023-05-06T08:31:34;2.57;;;1.27;;
10295;SDS011;5193;51.032;6.356;2023-05-06T08:33:59;3.30;;;1.10;;
10295;SDS011;5193;51.032;6.356;2023-05-06T08:36:25;1.27;;;0.90;;
10295;SDS011;5193;51.032;6.356;2023-05-06T08:38:51;3.43;;;1.20;;
10295;SDS011;5193;51.032;6.356;2023-05-06T08:41:17;1.63;;;1.17;;
10295;SDS011;5193;51.032;6.356;2023-05-06T08:43:44;1.63;;;1.10;;
10295;SDS011;5193;51.032;6.356;2023-05-06T08:46:11;1.87;;;1.07;;
10295;SDS011;5193;51.032;6.356;2023-05-06T08:48:40;2.10;;;1.10;;
10295;SDS011;5193;51.032;6.356;2023-05-06T08:51:06;1.90;;;1.20;;
10295;SDS011;5193;51.032;6.356;2023-05-06T08:53:32;3.30;;;1.23;;
10295;SDS011;5193;51.032;6.356;2023-05-06T08:56:03;2.30;;;1.00;;
10295;SDS011;5193;51.032;6.356;2023-05-06T08:58:32;1.63;;;1.03;;
10295;SDS011;5193;51.032;6.356;2023-05-06T09:00:59;1.70;;;1.00;;
10295;SDS011;5193;51.032;6.356;2023-05-06T09:03:26;1.83;;;1.10;;
10295;SDS011;5193;51.032;6.356;2023-05-06T09:05:52;1.20;;;0.80;;
10295;SDS011;5193;51.032;6.356;2023-05-06T09:08:18;1.17;;;0.90;;
10295;SDS011;5193;51.032;6.356;2023-05-06T09:10:44;2.43;;;1.40;;
10295;SDS011;5193;51.032;6.356;2023-05-06T09:13:11;2.10;;;1.43;;
10295;SDS011;5193;51.032;6.356;2023-05-06T09:15:39;2.80;;;0.97;;
10295;SDS011;5193;51.032;6.356;2023-05-06T09:18:09;2.43;;;1.20;;
10295;SDS011;5193;51.032;6.356;2023-05-06T09:20:39;1.70;;;1.10;;
10295;SDS011;5193;51.032;6.356;2023-05-06T09:23:07;1.13;;;1.00;;
10295;SDS011;5193;51.032;6.356;2023-05-06T09:25:33;1.73;;;1.13;;
10295;SDS011;5193;51.032;6.356;2023-05-06T09:28:06;1.37;;;1.00;;
10295;SDS011;5193;51.032;6.356;2023-05-06T09:30:33;1.10;;;1.00;;
10295;SDS011;5193;51.032;6.356;2023-05-06T09:33:06;4.57;;;1.43;;
10295;SDS011;5193;51.032;6.356;2023-05-06T09:35:39;1.47;;;0.80;;
10295;SDS011;5193;51.032;6.356;2023-05-06T09:38:06;2.20;;;0.90;;
10295;SDS011;5193;51.032;6.356;2023-05-06T09:40:36;2.20;;;0.90;;
10295;SDS011;5193;51.032;6.356;2023-05-06T09:43:02;2.33;;;1.00;;
10295;SDS011;5193;51.032;6.356;2023-05-06T09:45:29;2.27;;;1.10;;
10295;SDS011;5193;51.032;6.356;2023-05-06T09:47:55;2.07;;;1.10;;
10295;SDS011;5193;51.032;6.356;2023-05-06T09:50:22;2.87;;;1.40;;
10295;SDS011;5193;51.032;6.356;2023-05-06T09:52:49;2.10;;;1.00;;
10295;SDS011;5193;51.032;6.356;2023-05-06T09:55:18;1.30;;;1.00;;
10295;SDS011;5193;51.032;6.356;2023-05-06T09:57:45;5.27;;;1.30;;
10295;SDS011;5193;51.032;6.356;2023-05-06T10:00:12;2.40;;;1.20;;
10295;SDS011;5193;51.032;6.356;2023-05-06T10:02:39;3.43;;;1.20;;
10295;SDS011;5193;51.032;6.356;2023-05-06T10:05:05;2.27;;;1.17;;
10295;SDS011;5193;51.032;6.356;2023-05-06T10:07:33;1.00;;;0.90;;
10295;SDS011;5193;51.032;6.356;2023-05-06T10:09:59;1.37;;;0.87;;
10295;SDS011;5193;51.032;6.356;2023-05-06T10:12:27;1.57;;;0.90;;
10295;SDS011;5193;51.032;6.356;2023-05-06T10:14:53;4.90;;;1.30;;
10295;SDS011;5193;51.032;6.356;2023-05-06T10:17:22;2.20;;;0.93;;
10295;SDS011;5193;51.032;6.356;2023-05-06T10:19:49;2.40;;;0.90;;
10295;SDS011;5193;51.032;6.356;2023-05-06T10:27:43;2.40;;;0.90;;
10295;SDS011;5193;51.032;6.356;2023-05-06T10:30:10;2.10;;;1.20;;
10295;SDS011;5193;51.032;6.356;2023-05-06T10:32:41;2.30;;;1.23;;
10295;SDS011;5193;51.032;6.356;2023-05-06T10:35:14;2.70;;;1.30;;
10295;SDS011;5193;51.032;6.356;2023-05-06T10:37:46;2.93;;;1.00;;
10295;SDS011;5193;51.032;6.356;2023-05-06T10:40:14;1.77;;;1.20;;
10295;SDS011;5193;51.032;6.356;2023-05-06T10:42:40;1.23;;;1.00;;
10295;SDS011;5193;51.032;6.356;2023-05-06T10:45:06;1.93;;;1.30;;
10295;SDS011;5193;51.032;6.356;2023-05-06T10:50:21;1.60;;;1.33;;
10295;SDS011;5193;51.032;6.356;2023-05-06T10:52:55;1.53;;;1.10;;
10295;SDS011;5193;51.032;6.356;2023-05-06T10:55:33;2.93;;;1.50;;
10295;SDS011;5193;51.032;6.356;2023-05-06T11:00:34;2.03;;;1.13;;
10295;SDS011;5193;51.032;6.356;2023-05-06T11:03:01;1.90;;;1.17;;
10295;SDS011;5193;51.032;6.356;2023-05-06T11:05:30;2.27;;;1.50;;
10295;SDS011;5193;51.032;6.356;2023-05-06T11:08:05;2.77;;;1.27;;
10295;SDS011;5193;51.032;6.356;2023-05-06T11:10:33;2.00;;;1.33;;
10295;SDS011;5193;51.032;6.356;2023-05-06T11:13:16;3.17;;;1.38;;
10295;SDS011;5193;51.032;6.356;2023-05-06T11:15:46;2.77;;;1.23;;
10295;SDS011;5193;51.032;6.356;2023-05-06T11:26:10;6.50;;;1.75;;
10295;SDS011;5193;51.032;6.356;2023-05-06T11:28:37;2.37;;;1.53;;
10295;SDS011;5193;51.032;6.356;2023-05-06T11:31:04;4.30;;;1.80;;
10295;SDS011;5193;51.032;6.356;2023-05-06T11:33:33;2.45;;;1.50;;
10295;SDS011;5193;51.032;6.356;2023-05-06T11:36:01;2.45;;;1.40;;
10295;SDS011;5193;51.032;6.356;2023-05-06T11:41:21;3.72;;;1.70;;
10295;SDS011;5193;51.032;6.356;2023-05-06T11:43:50;2.40;;;1.45;;
10295;SDS011;5193;51.032;6.356;2023-05-06T11:46:17;3.03;;;1.50;;
10295;SDS011;5193;51.032;6.356;2023-05-06T11:48:43;3.95;;;1.42;;
10295;SDS011;5193;51.032;6.356;2023-05-06T11:51:09;3.65;;;1.45;;
10295;SDS011;5193;51.032;6.356;2023-05-06T11:53:34;3.20;;;1.33;;
10295;SDS011;5193;51.032;6.356;2023-05-06T11:56:01;5.80;;;1.30;;
10295;SDS011;5193;51.032;6.356;2023-05-06T11:58:29;1.80;;;1.45;;
10295;SDS011;5193;51.032;6.356;2023-05-06T12:00:55;6.22;;;1.58;;
10295;SDS011;5193;51.032;6.356;2023-05-06T12:03:23;3.58;;;1.38;;
10295;SDS011;5193;51.032;6.356;2023-05-06T12:05:50;3.55;;;1.40;;
10295;SDS011;5193;51.032;6.356;2023-05-06T12:08:17;1.58;;;1.20;;
10295;SDS011;5193;51.032;6.356;2023-05-06T12:10:47;1.90;;;1.25;;
10295;SDS011;5193;51.032;6.356;2023-05-06T12:13:16;2.10;;;1.40;;
10295;SDS011;5193;51.032;6.356;2023-05-06T12:15:43;2.42;;;1.05;;
10295;SDS011;5193;51.032;6.356;2023-05-06T12:18:09;2.60;;;1.30;;
10295;SDS011;5193;51.032;6.356;2023-05-06T12:20:35;2.42;;;0.98;;
10295;SDS011;5193;51.032;6.356;2023-05-06T12:23:33;1.35;;;0.90;;
10295;SDS011;5193;51.032;6.356;2023-05-06T12:25:59;1.73;;;1.08;;
10295;SDS011;5193;51.032;6.356;2023-05-06T12:28:26;2.08;;;1.13;;
10295;SDS011;5193;51.032;6.356;2023-05-06T12:30:52;2.75;;;1.08;;
10295;SDS011;5193;51.032;6.356;2023-05-06T12:33:17;6.25;;;5.10;;
10295;SDS011;5193;51.032;6.356;2023-05-06T12:35:43;3.13;;;1.23;;
10295;SDS011;5193;51.032;6.356;2023-05-06T12:38:09;3.72;;;1.27;;
10295;SDS011;5193;51.032;6.356;2023-05-06T12:40:36;2.70;;;1.30;;
10295;SDS011;5193;51.032;6.356;2023-05-06T12:43:02;1.83;;;1.00;;
10295;SDS011;5193;51.032;6.356;2023-05-06T12:45:28;2.95;;;1.17;;
10295;SDS011;5193;51.032;6.356;2023-05-06T12:47:54;2.40;;;0.75;;
10295;SDS011;5193;51.032;6.356;2023-05-06T12:50:34;4.00;;;1.08;;
10295;SDS011;5193;51.032;6.356;2023-05-06T12:53:05;2.13;;;0.85;;
10295;SDS011;5193;51.032;6.356;2023-05-06T12:55:32;2.75;;;1.10;;
10295;SDS011;5193;51.032;6.356;2023-05-06T12:58:00;1.73;;;0.88;;
10295;SDS011;5193;51.032;6.356;2023-05-06T13:00:27;1.40;;;0.90;;
10295;SDS011;5193;51.032;6.356;2023-05-06T13:02:52;4.10;;;1.10;;
10295;SDS011;5193;51.032;6.356;2023-05-06T13:05:18;1.08;;;0.90;;
10295;SDS011;5193;51.032;6.356;2023-05-06T13:07:44;2.60;;;1.00;;
10295;SDS011;5193;51.032;6.356;2023-05-06T13:10:09;2.63;;;1.08;;
10295;SDS011;5193;51.032;6.356;2023-05-06T13:12:35;2.25;;;0.80;;
10295;SDS011;5193;51.032;6.356;2023-05-06T13:15:01;3.58;;;1.00;;
10295;SDS011;5193;51.032;6.356;2023-05-06T13:17:28;6.05;;;0.80;;
10295;SDS011;5193;51.032;6.356;2023-05-06T13:19:57;3.75;;;1.05;;
10295;SDS011;5193;51.032;6.356;2023-05-06T13:22:22;1.60;;;0.88;;
10295;SDS011;5193;51.032;6.356;2023-05-06T13:24:48;2.67;;;0.90;;
10295;SDS011;5193;51.032;6.356;2023-05-06T13:27:14;1.42;;;0.70;;
10295;SDS011;5193;51.032;6.356;2023-05-06T13:29:40;1.47;;;0.80;;
10295;SDS011;5193;51.032;6.356;2023-05-06T13:32:06;1.48;;;0.85;;
10295;SDS011;5193;51.032;6.356;2023-05-06T13:34:31;3.90;;;0.87;;
10295;SDS011;5193;51.032;6.356;2023-05-06T13:36:57;1.75;;;1.02;;
10295;SDS011;5193;51.032;6.356;2023-05-06T13:39:23;1.67;;;1.00;;
10295;SDS011;5193;51.032;6.356;2023-05-06T13:41:49;2.90;;;1.20;;
10295;SDS011;5193;51.032;6.356;2023-05-06T13:44:15;3.03;;;1.00;;
10295;SDS011;5193;51.032;6.356;2023-05-06T13:46:44;2.63;;;0.97;;
10295;SDS011;5193;51.032;6.356;2023-05-06T13:49:10;2.00;;;1.00;;
10295;SDS011;5193;51.032;6.356;2023-05-06T13:51:35;1.70;;;0.80;;
10295;SDS011;5193;51.032;6.356;2023-05-06T13:54:01;3.83;;;1.43;;
10295;SDS011;5193;51.032;6.356;2023-05-06T13:56:28;7.53;;;1.27;;
10295;SDS011;5193;51.032;6.356;2023-05-06T13:58:53;2.73;;;1.33;;
10295;SDS011;5193;51.032;6.356;2023-05-06T14:01:20;4.37;;;1.30;;
10295;SDS011;5193;51.032;6.356;2023-05-06T14:03:46;2.60;;;1.00;;
10295;SDS011;5193;51.032;6.356;2023-05-06T14:06:12;3.73;;;1.50;;
10295;SDS011;5193;51.032;6.356;2023-05-06T14:08:37;3.17;;;1.33;;
10295;SDS011;5193;51.032;6.356;2023-05-06T14:11:03;3.13;;;1.37;;
10295;SDS011;5193;51.032;6.356;2023-05-06T14:13:30;2.83;;;1.40;;
10295;SDS011;5193;51.032;6.356;2023-05-06T14:15:57;1.90;;;1.20;;
10295;SDS011;5193;51.032;6.356;2023-05-06T14:18:24;2.20;;;1.10;;
10295;SDS011;5193;51.032;6.356;2023-05-06T14:20:50;2.73;;;1.47;;
10295;SDS011;5193;51.032;6.356;2023-05-06T14:23:15;1.93;;;0.90;;
10295;SDS011;5193;51.032;6.356;2023-05-06T14:25:41;1.43;;;1.10;;
10295;SDS011;5193;51.032;6.356;2023-05-06T14:28:06;1.70;;;1.20;;
10295;SDS011;5193;51.032;6.356;2023-05-06T14:30:34;2.60;;;1.10;;
10295;SDS011;5193;51.032;6.356;2023-05-06T14:33:01;1.83;;;1.20;;
10295;SDS011;5193;51.032;6.356;2023-05-06T14:35:27;1.00;;;0.87;;
10295;SDS011;5193;51.032;6.356;2023-05-06T14:37:52;2.27;;;0.97;;
10295;SDS011;5193;51.032;6.356;2023-05-06T14:40:18;2.80;;;0.93;;
10295;SDS011;5193;51.032;6.356;2023-05-06T14:42:43;1.53;;;0.97;;
10295;SDS011;5193;51.032;6.356;2023-05-06T14:45:10;1.43;;;0.80;;
10295;SDS011;5193;51.032;6.356;2023-05-06T14:47:37;2.90;;;1.10;;
10295;SDS011;5193;51.032;6.356;2023-05-06T14:50:03;0.87;;;0.83;;
10295;SDS011;5193;51.032;6.356;2023-05-06T14:52:31;2.23;;;0.87;;
10295;SDS011;5193;51.032;6.356;2023-05-06T14:54:56;2.03;;;1.00;;
10295;SDS011;5193;51.032;6.356;2023-05-06T14:57:22;1.97;;;1.00;;
10295;SDS011;5193;51.032;6.356;2023-05-06T14:59:48;4.00;;;1.17;;
10295;SDS011;5193;51.032;6.356;2023-05-06T15:02:15;2.83;;;1.27;;
10295;SDS011;5193;51.032;6.356;2023-05-06T15:04:41;2.20;;;0.80;;
10295;SDS011;5193;51.032;6.356;2023-05-06T15:07:07;1.83;;;1.10;;
10295;SDS011;5193;51.032;6.356;2023-05-06T15:09:32;1.63;;;0.90;;
10295;SDS011;5193;51.032;6.356;2023-05-06T15:11:58;1.93;;;0.80;;
10295;SDS011;5193;51.032;6.356;2023-05-06T15:14:24;2.60;;;1.10;;
10295;SDS011;5193;51.032;6.356;2023-05-06T15:16:54;1.00;;;0.90;;
10295;SDS011;5193;51.032;6.356;2023-05-06T15:19:20;1.17;;;0.83;;